METAR Data
IDs: Format: Raw Decoded Include TAF

Data at: 0118 UTC 16 Jan 2019

KACT 160051Z 16008KT 8SM OVC036 09/06 A3026 RMK AO2 SLP246 T00940056
KACT 152351Z 15009KT 8SM OVC038 09/05 A3024 RMK AO2 SLP241 T00940050 10100 20089 55008
KACT 152251Z 17009KT 8SM BKN022 OVC042 10/05 A3024 RMK AO2 SLP240 T01000050
KACT 152151Z 7SM BKN022 OVC042 10/04 A3025 RMK AO2 SLP244 T01000044 $
KACT 152051Z 16006KT 7SM OVC021 10/04 A3027 RMK AO2 SLP249 T01000044 56032
KACT 152030Z COR 17007KT 9SM BKN021 OVC031 09/04 A3027 RMK AO2 T00940039 $
KACT 151951Z 17007KT 9SM FEW019 OVC035 09/04 A3028 RMK AO2 SLP252 T00940039 $
KACT 151851Z 17005KT 9SM OVC041 A3031 RMK AO2 SLPNO $
KACT 151751Z 18005KT 9SM OVC041 09/03 A3036 RMK AO2 SLP283 T00890033 10089 20050 50002
KACT 151651Z 18006KT 8SM SCT047 OVC055 08/03 A3039 RMK AO2 SLP290 T00830028
KACT 151551Z 17005KT 8SM OVC060 07/03 A3038 RMK AO2 SLP288 T00720028
KACT 151451Z 17005KT 6SM HZ OVC060 07/02 A3036 RMK AO2 SLP282 T00670022 53007
KACT 151351Z 12004KT 6SM HZ OVC055 06/03 A3035 RMK AO2 SLP278 T00560028
KACT 151251Z 09003KT 8SM OVC050 06/02 A3034 RMK AO2 SLP275 T00560022
KACT 151151Z 00000KT 7SM OVC050 05/03 A3034 RMK AO2 SLP273 T00500028 10056 20044 55006
KACT 151051Z AUTO 08003KT 7SM OVC055 05/03 A3033 RMK AO2 SLP271 T00500028
KACT 150951Z AUTO 00000KT 8SM OVC055 05/03 A3035 RMK AO2 SLP278 T00500028
KACT 150851Z AUTO 07004KT 8SM OVC055 05/03 A3035 RMK AO2 SLP279 T00500028 56006
KACT 150751Z AUTO 00000KT 8SM OVC055 05/03 A3036 RMK AO2 SLP282 T00500028
KACT 150651Z AUTO 00000KT 6SM BR OVC050 05/03 A3036 RMK AO2 SLP281 T00500033
KACT 150551Z AUTO 00000KT 5SM BR OVC050 04/03 A3037 RMK AO2 SLP285 T00440028 10050 20000 400830000 58007
KACT 150451Z 24003KT 5SM BR OVC055 03/02 A3039 RMK AO2 SLP292 T00330022
KACT 150351Z 17003KT 8SM CLR 01/M01 A3040 RMK AO2 SLP294 T00061006
KACT 150251Z 00000KT 8SM CLR 01/M01 A3039 RMK AO2 SLP294 T00111006 50005
KACT 150151Z 00000KT 9SM CLR 03/01 A3040 RMK AO2 SLP294 T00330006
KACT 150051Z 06004KT 9SM CLR 04/00 A3039 RMK AO2 SLP293 T00390000
KACT 142351Z 06005KT 8SM CLR 05/01 A3038 RMK AO2 SLP289 T00500006 10083 20039 56008
KACT 142251Z 03005KT 10SM OVC060 08/01 A3039 RMK AO2 SLP290 T00780011
KACT 142151Z 00000KT 10SM BKN060 07/01 A3039 RMK AO2 SLP292 T00720006
KACT 142051Z 34003KT 9SM OVC065 07/01 A3040 RMK AO2 SLP296 T00670006 56032
KACT 141951Z 34004KT 8SM SCT018 OVC065 06/00 A3042 RMK AO2 SLP301 T00560000
KACT 141851Z 34003KT 8SM OVC018 04/00 A3045 RMK AO2 SLP314 T00440000
KACT 141751Z 35003KT 8SM OVC015 04/00 A3050 RMK AO2 SLP329 T00390000 10039 20022 50003
KACT 141651Z 01004KT 7SM OVC015 03/M01 A3052 RMK AO2 SLP336 T00331006
KACT 141551Z 35007KT 8SM OVC015 03/M01 A3052 RMK AO2 SLP337 T00281006
KACT 141451Z 01007KT 8SM OVC015 03/M01 A3049 RMK AO2 SLP327 T00281011 53005
KACT 141351Z 36008KT 7SM OVC015 02/M01 A3048 RMK AO2 SLP322 T00221011